Time;durP1;ratioP1;P1;durP2;ratioP2;P2;SDS_P1;SDS_P2;PMS_P1;PMS_P2;Temp;Humidity;BMP_temperature;BMP_pressure;BME280_temperature;BME280_humidity;BME280_pressure;Samples;Min_cycle;Max_cycle;Signal;HPM_P1;HPM_P2
2023/03/15 00:01:13;;;;;;;14.27;3.15;;;;;;;;;;5013244;28;20026;-72
2023/03/15 00:03:40;;;;;;;13.70;2.90;;;;;;;;;;5013000;28;20518;-72
2023/03/15 00:06:06;;;;;;;13.10;2.97;;;;;;;;;;5013114;28;20032;-71
2023/03/15 00:08:32;;;;;;;10.13;2.22;;;;;;;;;;5012943;28;20041;-72
2023/03/15 00:10:58;;;;;;;12.20;1.92;;;;;;;;;;5012906;28;20042;-71
2023/03/15 00:13:24;;;;;;;11.77;1.83;;;;;;;;;;5012930;28;20653;-72
2023/03/15 00:15:52;;;;;;;8.50;2.30;;;;;;;;;;5012678;28;20113;-72
2023/03/15 00:18:19;;;;;;;10.70;2.35;;;;;;;;;;5012848;28;20022;-72
2023/03/15 00:20:46;;;;;;;12.77;2.78;;;;;;;;;;5012885;28;20030;-73
2023/03/15 00:23:12;;;;;;;13.10;3.03;;;;;;;;;;5012606;28;20022;-72
2023/03/15 00:25:38;;;;;;;12.38;2.65;;;;;;;;;;5012628;28;20018;-71
2023/03/15 00:28:05;;;;;;;9.07;2.75;;;;;;;;;;5012566;28;20021;-72
2023/03/15 00:30:31;;;;;;;8.45;1.88;;;;;;;;;;5012882;28;20034;-72
2023/03/15 00:32:57;;;;;;;13.90;2.92;;;;;;;;;;5012665;28;20033;-72
2023/03/15 00:35:23;;;;;;;11.40;2.47;;;;;;;;;;5012739;28;20026;-70
2023/03/15 00:37:49;;;;;;;13.35;2.50;;;;;;;;;;5012777;28;20510;-72
2023/03/15 00:40:16;;;;;;;8.60;2.47;;;;;;;;;;5012625;28;20026;-72
2023/03/15 00:42:49;;;;;;;10.70;2.63;;;;;;;;;;5012486;28;20026;-72
2023/03/15 00:45:15;;;;;;;15.48;2.67;;;;;;;;;;5018015;28;20491;-71
2023/03/15 00:47:41;;;;;;;11.57;2.15;;;;;;;;;;5018953;28;20029;-73
2023/03/15 00:50:07;;;;;;;12.85;2.92;;;;;;;;;;5019086;28;20030;-71
2023/03/15 00:52:35;;;;;;;11.07;2.78;;;;;;;;;;5016156;28;20527;-72
2023/03/15 00:55:01;;;;;;;17.27;2.55;;;;;;;;;;5012330;28;20026;-72
2023/03/15 00:57:27;;;;;;;12.45;2.50;;;;;;;;;;4994543;28;20022;-72
2023/03/15 00:59:53;;;;;;;10.45;2.42;;;;;;;;;;5012365;28;20148;-73
2023/03/15 01:02:22;;;;;;;12.40;2.78;;;;;;;;;;5012219;28;20033;-72
2023/03/15 01:04:50;;;;;;;10.82;2.58;;;;;;;;;;4993779;28;20148;-72
2023/03/15 01:07:16;;;;;;;8.60;2.00;;;;;;;;;;4994053;28;20484;-72
2023/03/15 01:09:43;;;;;;;11.35;2.95;;;;;;;;;;5012285;28;20033;-72
2023/03/15 01:12:09;;;;;;;12.85;2.58;;;;;;;;;;5011907;28;20106;-72
2023/03/15 01:14:37;;;;;;;10.80;2.72;;;;;;;;;;5012179;28;20061;-73
2023/03/15 01:17:03;;;;;;;14.20;2.90;;;;;;;;;;5011625;28;20034;-71
2023/03/15 01:19:29;;;;;;;13.77;2.40;;;;;;;;;;5011922;28;20033;-72
2023/03/15 01:21:55;;;;;;;20.67;3.97;;;;;;;;;;5011929;28;20026;-72
2023/03/15 01:24:21;;;;;;;9.85;2.45;;;;;;;;;;5012115;28;20026;-73
2023/03/15 01:26:47;;;;;;;8.95;2.35;;;;;;;;;;5011581;28;20034;-72
2023/03/15 01:29:16;;;;;;;5.95;1.75;;;;;;;;;;5011747;28;20025;-72
2023/03/15 01:31:42;;;;;;;15.98;3.05;;;;;;;;;;5011874;28;20488;-72
2023/03/15 01:34:09;;;;;;;12.77;2.38;;;;;;;;;;5011758;28;20450;-73
2023/03/15 01:36:35;;;;;;;12.32;2.65;;;;;;;;;;5012030;28;20379;-72
2023/03/15 01:39:01;;;;;;;11.18;1.88;;;;;;;;;;5011508;28;20525;-73
2023/03/15 01:41:27;;;;;;;9.25;1.83;;;;;;;;;;5011926;28;20037;-73
2023/03/15 01:43:53;;;;;;;14.95;2.72;;;;;;;;;;5011609;28;20071;-72
2023/03/15 01:46:22;;;;;;;11.38;1.90;;;;;;;;;;5011686;28;20044;-73
2023/03/15 01:48:48;;;;;;;14.32;2.38;;;;;;;;;;5011291;28;20137;-73
2023/03/15 01:51:22;;;;;;;8.93;2.70;;;;;;;;;;5011696;28;20077;-73
2023/03/15 01:53:55;;;;;;;9.00;2.33;;;;;;;;;;5011627;28;20037;-72
2023/03/15 01:56:21;;;;;;;8.63;2.40;;;;;;;;;;5011765;28;20404;-73
2023/03/15 01:58:48;;;;;;;13.48;2.95;;;;;;;;;;5011552;28;20432;-72
2023/03/15 02:01:14;;;;;;;11.48;2.47;;;;;;;;;;5011456;28;20026;-73
2023/03/15 02:03:45;;;;;;;9.93;2.38;;;;;;;;;;4993942;28;20034;-73
2023/03/15 02:06:17;;;;;;;14.38;3.50;;;;;;;;;;5011240;28;20026;-72
2023/03/15 02:09:03;;;;;;;14.82;2.63;;;;;;;;;;5011211;28;20054;-73
2023/03/15 02:11:29;;;;;;;12.80;2.95;;;;;;;;;;5011374;28;20415;-73
2023/03/15 02:13:56;;;;;;;8.65;2.67;;;;;;;;;;5011265;28;20041;-71
2023/03/15 02:16:23;;;;;;;13.52;2.72;;;;;;;;;;5013751;28;20065;-72
2023/03/15 02:18:49;;;;;;;17.10;2.88;;;;;;;;;;5015118;28;20049;-73
2023/03/15 02:21:18;;;;;;;11.82;3.13;;;;;;;;;;4997635;28;20029;-73
2023/03/15 02:23:46;;;;;;;14.73;2.55;;;;;;;;;;5015048;28;20743;-73
2023/03/15 02:26:29;;;;;;;14.18;2.22;;;;;;;;;;5014867;28;20037;-72
2023/03/15 02:28:55;;;;;;;16.30;2.60;;;;;;;;;;5014879;28;20025;-72
2023/03/15 02:31:21;;;;;;;11.55;2.60;;;;;;;;;;5015260;28;20018;-72
2023/03/15 02:33:51;;;;;;;6.53;2.53;;;;;;;;;;5015194;28;20033;-72
2023/03/15 02:36:17;;;;;;;15.65;2.53;;;;;;;;;;5014852;28;20168;-72
2023/03/15 02:38:43;;;;;;;12.82;3.50;;;;;;;;;;5014669;28;20105;-72
2023/03/15 02:41:10;;;;;;;6.47;2.30;;;;;;;;;;5014960;28;20080;-72
2023/03/15 02:43:36;;;;;;;10.30;2.47;;;;;;;;;;5014612;28;20476;-72
2023/03/15 02:46:03;;;;;;;17.73;3.50;;;;;;;;;;5014750;28;20053;-71
2023/03/15 02:48:31;;;;;;;15.07;3.40;;;;;;;;;;4996833;28;20029;-73
2023/03/15 02:50:57;;;;;;;10.85;2.58;;;;;;;;;;5012347;28;20416;-73
2023/03/15 02:53:23;;;;;;;17.38;3.35;;;;;;;;;;5013500;28;20030;-72
2023/03/15 02:55:50;;;;;;;17.55;3.88;;;;;;;;;;5014105;28;20156;-72
2023/03/15 02:58:16;;;;;;;8.50;2.53;;;;;;;;;;5013979;28;20026;-72
2023/03/15 03:00:42;;;;;;;13.52;2.85;;;;;;;;;;4999135;28;20030;-72
2023/03/15 03:03:08;;;;;;;16.48;2.40;;;;;;;;;;4994718;28;20036;-72
2023/03/15 03:05:34;;;;;;;14.23;2.72;;;;;;;;;;4994447;28;20388;-72
2023/03/15 03:08:01;;;;;;;11.40;2.90;;;;;;;;;;5000666;28;20014;-72
2023/03/15 03:10:27;;;;;;;10.13;2.55;;;;;;;;;;4996519;28;20484;-72
2023/03/15 03:12:53;;;;;;;19.45;3.85;;;;;;;;;;5012467;28;20180;-72
2023/03/15 03:15:19;;;;;;;14.25;3.10;;;;;;;;;;5012388;28;20642;-72
2023/03/15 03:17:46;;;;;;;17.27;3.20;;;;;;;;;;5012061;28;20500;-72
2023/03/15 03:20:12;;;;;;;15.60;2.95;;;;;;;;;;5012097;28;20049;-72
2023/03/15 03:22:39;;;;;;;8.55;2.45;;;;;;;;;;4994737;28;20022;-72
2023/03/15 03:25:05;;;;;;;12.15;2.50;;;;;;;;;;4994778;28;20053;-72
2023/03/15 03:27:35;;;;;;;10.85;2.30;;;;;;;;;;5012981;28;20500;-71
2023/03/15 03:30:01;;;;;;;10.10;2.95;;;;;;;;;;5013703;28;20022;-72
2023/03/15 03:32:27;;;;;;;16.30;3.05;;;;;;;;;;5013692;28;20117;-72
2023/03/15 03:34:54;;;;;;;13.32;3.50;;;;;;;;;;5013541;28;20026;-72
2023/03/15 03:37:20;;;;;;;10.57;2.45;;;;;;;;;;5013448;28;20285;-71
2023/03/15 03:39:46;;;;;;;9.60;2.40;;;;;;;;;;5013558;28;20072;-72
2023/03/15 03:42:13;;;;;;;9.48;2.33;;;;;;;;;;5013626;28;20076;-72
2023/03/15 03:44:39;;;;;;;15.07;3.17;;;;;;;;;;5013803;28;20018;-72
2023/03/15 03:47:05;;;;;;;13.23;3.17;;;;;;;;;;5013988;28;20045;-73
2023/03/15 03:49:31;;;;;;;10.35;3.42;;;;;;;;;;4996132;28;20109;-73
2023/03/15 03:51:59;;;;;;;13.45;3.25;;;;;;;;;;5013538;28;20084;-72
2023/03/15 03:54:25;;;;;;;14.40;3.47;;;;;;;;;;5013395;28;20022;-72
2023/03/15 03:56:51;;;;;;;15.00;3.90;;;;;;;;;;5013358;28;20018;-73
2023/03/15 03:59:17;;;;;;;15.30;3.85;;;;;;;;;;5013237;28;20030;-73
2023/03/15 04:01:43;;;;;;;20.00;4.82;;;;;;;;;;5013136;28;20028;-73
2023/03/15 04:04:12;;;;;;;23.90;4.40;;;;;;;;;;5012985;28;20030;-72
2023/03/15 04:06:44;;;;;;;16.02;3.90;;;;;;;;;;5013423;28;20391;-73
2023/03/15 04:09:11;;;;;;;13.27;3.05;;;;;;;;;;4995407;28;20530;-73
2023/03/15 04:11:37;;;;;;;12.20;3.50;;;;;;;;;;5013453;28;20018;-72
2023/03/15 04:14:03;;;;;;;10.35;2.85;;;;;;;;;;5012837;28;20026;-73
2023/03/15 04:16:29;;;;;;;9.77;2.72;;;;;;;;;;5012855;28;20029;-73
2023/03/15 04:18:56;;;;;;;11.10;2.90;;;;;;;;;;5010159;28;20037;-72
2023/03/15 04:21:22;;;;;;;12.68;3.55;;;;;;;;;;5012190;28;20054;-72
2023/03/15 04:23:48;;;;;;;15.57;2.88;;;;;;;;;;5012518;28;20030;-73
2023/03/15 04:26:14;;;;;;;14.88;3.20;;;;;;;;;;5012775;28;20086;-73
2023/03/15 04:28:41;;;;;;;9.80;2.78;;;;;;;;;;5012531;28;20033;-73
2023/03/15 04:31:09;;;;;;;12.30;3.00;;;;;;;;;;5012336;28;20046;-74
2023/03/15 04:33:35;;;;;;;14.48;2.70;;;;;;;;;;5013055;28;20030;-74
2023/03/15 04:36:01;;;;;;;15.38;2.65;;;;;;;;;;5012563;28;20477;-73
2023/03/15 04:38:27;;;;;;;15.77;2.38;;;;;;;;;;5011940;28;20038;-72
2023/03/15 04:40:54;;;;;;;21.55;3.75;;;;;;;;;;5012030;28;20110;-71
2023/03/15 04:43:23;;;;;;;12.18;2.55;;;;;;;;;;4995059;28;20026;-72
2023/03/15 04:45:50;;;;;;;13.00;3.45;;;;;;;;;;5012077;28;20030;-72
2023/03/15 04:48:16;;;;;;;12.93;1.90;;;;;;;;;;5012241;28;20053;-72
2023/03/15 04:50:42;;;;;;;15.45;3.78;;;;;;;;;;5012445;28;20026;-73
2023/03/15 04:53:08;;;;;;;12.13;2.45;;;;;;;;;;5012237;28;20456;-73
2023/03/15 04:55:34;;;;;;;10.85;2.25;;;;;;;;;;5012264;28;20034;-73
2023/03/15 04:58:00;;;;;;;12.52;2.22;;;;;;;;;;5011493;28;20026;-73
2023/03/15 05:00:26;;;;;;;12.10;2.70;;;;;;;;;;5011477;28;20117;-72
2023/03/15 05:02:53;;;;;;;9.70;2.30;;;;;;;;;;5002703;28;20659;-73
2023/03/15 05:05:21;;;;;;;11.00;1.85;;;;;;;;;;5012345;28;20049;-72
2023/03/15 05:07:47;;;;;;;11.02;2.10;;;;;;;;;;5012118;28;20097;-72
2023/03/15 05:10:13;;;;;;;15.48;2.63;;;;;;;;;;5012469;28;20033;-72
2023/03/15 05:12:39;;;;;;;11.52;2.65;;;;;;;;;;5012011;28;20492;-71
2023/03/15 05:15:06;;;;;;;8.85;2.20;;;;;;;;;;5011992;28;20034;-73
2023/03/15 05:17:32;;;;;;;19.85;3.00;;;;;;;;;;5011826;28;20083;-72
2023/03/15 05:20:09;;;;;;;10.27;2.35;;;;;;;;;;5012286;28;20026;-72
2023/03/15 05:22:35;;;;;;;15.65;3.53;;;;;;;;;;5011925;28;20022;-73
2023/03/15 05:25:02;;;;;;;8.77;2.28;;;;;;;;;;5011679;28;20117;-72
2023/03/15 05:27:28;;;;;;;19.63;3.25;;;;;;;;;;5011606;28;20034;-72
2023/03/15 05:29:54;;;;;;;9.85;2.20;;;;;;;;;;5012213;28;20022;-72
2023/03/15 05:32:25;;;;;;;10.27;2.33;;;;;;;;;;5012069;28;20026;-72
2023/03/15 05:34:53;;;;;;;7.53;1.70;;;;;;;;;;5011677;28;20108;-73
2023/03/15 05:37:20;;;;;;;14.63;2.60;;;;;;;;;;5011762;28;20391;-72
2023/03/15 05:39:46;;;;;;;9.48;2.13;;;;;;;;;;5011717;28;20022;-73
2023/03/15 05:42:12;;;;;;;9.38;2.33;;;;;;;;;;5011745;28;20080;-72
2023/03/15 05:44:38;;;;;;;11.07;2.55;;;;;;;;;;5011505;28;20627;-72
2023/03/15 05:47:04;;;;;;;16.15;4.07;;;;;;;;;;5011583;28;20030;-69
2023/03/15 05:49:30;;;;;;;17.73;3.25;;;;;;;;;;5010520;28;20026;-73
2023/03/15 05:51:56;;;;;;;11.40;3.55;;;;;;;;;;5009759;28;20112;-74
2023/03/15 05:54:22;;;;;;;12.10;2.60;;;;;;;;;;5030065;28;20159;-73
2023/03/15 05:56:48;;;;;;;14.02;3.65;;;;;;;;;;5018128;28;20523;-72
2023/03/15 05:59:14;;;;;;;13.95;4.25;;;;;;;;;;5014810;28;20137;-73
2023/03/15 06:01:40;;;;;;;9.90;3.35;;;;;;;;;;5015054;28;20022;-74
2023/03/15 06:04:06;;;;;;;7.88;3.67;;;;;;;;;;5014964;28;20029;-74
2023/03/15 06:06:32;;;;;;;7.70;2.70;;;;;;;;;;5015498;28;20022;-71
2023/03/15 06:08:58;;;;;;;12.95;3.40;;;;;;;;;;5014090;28;20033;-72
2023/03/15 06:11:24;;;;;;;9.60;2.95;;;;;;;;;;5013729;28;20026;-71
2023/03/15 06:13:50;;;;;;;12.27;3.92;;;;;;;;;;5015156;28;20480;-73
2023/03/15 06:16:16;;;;;;;10.88;2.92;;;;;;;;;;5021646;28;20030;-73
2023/03/15 06:18:42;;;;;;;7.00;2.42;;;;;;;;;;5022151;28;20022;-73
2023/03/15 06:21:08;;;;;;;11.30;3.25;;;;;;;;;;5020749;28;20419;-73
2023/03/15 06:23:34;;;;;;;9.52;3.28;;;;;;;;;;5016004;28;20026;-73
2023/03/15 06:26:00;;;;;;;9.38;3.10;;;;;;;;;;5013580;28;20030;-72
2023/03/15 06:28:26;;;;;;;7.95;2.80;;;;;;;;;;5015142;28;20030;-73
2023/03/15 06:30:52;;;;;;;8.35;2.58;;;;;;;;;;5014956;28;20030;-71
2023/03/15 06:33:18;;;;;;;8.30;2.30;;;;;;;;;;5014555;28;20124;-72
2023/03/15 06:35:45;;;;;;;9.82;2.70;;;;;;;;;;5014389;28;20037;-72
2023/03/15 06:38:12;;;;;;;9.23;3.05;;;;;;;;;;5014031;28;20400;-72
2023/03/15 06:40:38;;;;;;;10.48;3.58;;;;;;;;;;5014773;28;20088;-72
2023/03/15 06:43:05;;;;;;;9.82;2.85;;;;;;;;;;5014660;28;20032;-72
2023/03/15 06:45:31;;;;;;;9.48;2.80;;;;;;;;;;5015755;28;20076;-73
2023/03/15 06:47:57;;;;;;;11.82;2.90;;;;;;;;;;5014359;28;20014;-72
2023/03/15 06:50:23;;;;;;;12.40;4.20;;;;;;;;;;5014700;28;20097;-73
2023/03/15 06:52:49;;;;;;;10.48;3.20;;;;;;;;;;5014259;28;20034;-72
2023/03/15 06:55:17;;;;;;;9.15;2.95;;;;;;;;;;5014370;28;20032;-72
2023/03/15 06:57:46;;;;;;;12.05;3.33;;;;;;;;;;5013896;28;20030;-72
2023/03/15 07:00:12;;;;;;;8.75;2.67;;;;;;;;;;5014273;28;20030;-72
2023/03/15 07:02:38;;;;;;;7.95;2.42;;;;;;;;;;4995644;28;20033;-72
2023/03/15 07:05:04;;;;;;;8.90;2.85;;;;;;;;;;4996496;28;20037;-72
2023/03/15 07:07:30;;;;;;;13.27;2.88;;;;;;;;;;5013741;28;20152;-72
2023/03/15 07:09:56;;;;;;;11.75;2.85;;;;;;;;;;4997185;28;20033;-72
2023/03/15 07:12:22;;;;;;;11.30;3.08;;;;;;;;;;5015388;28;20201;-71
2023/03/15 07:14:48;;;;;;;11.20;3.25;;;;;;;;;;5014094;28;20096;-73
2023/03/15 07:17:14;;;;;;;8.20;2.25;;;;;;;;;;5013776;28;20022;-74
2023/03/15 07:19:41;;;;;;;7.32;1.90;;;;;;;;;;5013149;28;20096;-76
2023/03/15 07:22:07;;;;;;;8.15;2.85;;;;;;;;;;5009905;28;20503;-74
2023/03/15 07:24:33;;;;;;;8.38;2.50;;;;;;;;;;4994250;28;20088;-75
2023/03/15 07:26:59;;;;;;;7.07;2.75;;;;;;;;;;5011377;28;20026;-75
2023/03/15 07:29:25;;;;;;;14.82;2.67;;;;;;;;;;5013872;28;20053;-73
2023/03/15 07:31:51;;;;;;;10.05;2.70;;;;;;;;;;5012668;28;20044;-74
2023/03/15 07:34:17;;;;;;;5.43;2.45;;;;;;;;;;5012120;28;20413;-75
2023/03/15 07:36:43;;;;;;;13.85;2.50;;;;;;;;;;5010704;28;20036;-75
2023/03/15 07:39:10;;;;;;;8.63;2.63;;;;;;;;;;5011869;28;20104;-75
2023/03/15 07:41:36;;;;;;;8.18;3.03;;;;;;;;;;5013365;28;20022;-75
2023/03/15 07:44:02;;;;;;;8.43;2.67;;;;;;;;;;5012420;28;20499;-75
2023/03/15 07:46:28;;;;;;;7.38;2.05;;;;;;;;;;5012149;28;20022;-74
2023/03/15 07:48:54;;;;;;;12.18;2.65;;;;;;;;;;5012048;28;20026;-75
2023/03/15 07:51:20;;;;;;;8.93;2.70;;;;;;;;;;5011324;28;20026;-76
2023/03/15 07:53:46;;;;;;;11.95;2.67;;;;;;;;;;5012885;28;20049;-75
2023/03/15 07:56:12;;;;;;;11.13;2.67;;;;;;;;;;5011736;28;20168;-74
2023/03/15 07:58:38;;;;;;;8.35;2.92;;;;;;;;;;5010945;28;20112;-73
2023/03/15 08:01:04;;;;;;;8.73;2.63;;;;;;;;;;5011443;28;20033;-75
2023/03/15 08:03:30;;;;;;;9.18;2.08;;;;;;;;;;5010603;28;20171;-75
2023/03/15 08:05:56;;;;;;;12.50;2.78;;;;;;;;;;5011481;28;20109;-76
2023/03/15 08:08:22;;;;;;;9.85;2.47;;;;;;;;;;5011005;28;20037;-76
2023/03/15 08:10:49;;;;;;;8.70;2.38;;;;;;;;;;5011164;28;20108;-75
2023/03/15 08:13:15;;;;;;;10.82;2.35;;;;;;;;;;5012692;28;20392;-75
2023/03/15 08:15:41;;;;;;;8.75;2.35;;;;;;;;;;5012982;28;20025;-75
2023/03/15 08:18:07;;;;;;;6.75;2.40;;;;;;;;;;5012893;28;20022;-75
2023/03/15 08:20:33;;;;;;;8.07;1.90;;;;;;;;;;5012993;28;20041;-73
2023/03/15 08:23:00;;;;;;;12.35;3.08;;;;;;;;;;5013268;28;20022;-74
2023/03/15 08:25:26;;;;;;;10.70;2.35;;;;;;;;;;5012481;28;20049;-75
2023/03/15 08:27:52;;;;;;;9.55;2.67;;;;;;;;;;5012611;28;20030;-75
2023/03/15 08:30:19;;;;;;;11.05;2.30;;;;;;;;;;5012984;28;20046;-75
2023/03/15 08:32:46;;;;;;;5.85;1.90;;;;;;;;;;5012667;28;20036;-73
2023/03/15 08:35:13;;;;;;;13.05;3.00;;;;;;;;;;5012725;28;20076;-75
2023/03/15 08:37:39;;;;;;;13.38;2.90;;;;;;;;;;5012358;28;20064;-75
2023/03/15 08:40:10;;;;;;;10.48;2.53;;;;;;;;;;5012677;28;20033;-75
2023/03/15 08:42:37;;;;;;;11.88;2.90;;;;;;;;;;5012698;28;20496;-75
2023/03/15 08:45:04;;;;;;;8.48;2.08;;;;;;;;;;5012567;28;20037;-75
2023/03/15 08:47:30;;;;;;;14.80;2.28;;;;;;;;;;5012347;28;20018;-75
2023/03/15 08:49:56;;;;;;;12.13;2.13;;;;;;;;;;5012545;28;20033;-75
2023/03/15 08:52:22;;;;;;;10.75;2.78;;;;;;;;;;5012211;28;20384;-75
2023/03/15 08:54:48;;;;;;;15.90;2.78;;;;;;;;;;5010588;28;20488;-75
2023/03/15 08:57:14;;;;;;;10.90;2.60;;;;;;;;;;5010328;28;20026;-75
2023/03/15 08:59:40;;;;;;;12.45;2.90;;;;;;;;;;5010662;28;20017;-75
2023/03/15 09:02:06;;;;;;;8.23;1.80;;;;;;;;;;5010492;28;20037;-75
2023/03/15 09:04:33;;;;;;;5.30;1.75;;;;;;;;;;5010399;28;20033;-76
2023/03/15 09:06:59;;;;;;;10.40;2.95;;;;;;;;;;5009949;28;20030;-75
2023/03/15 09:09:25;;;;;;;8.90;2.67;;;;;;;;;;5011842;28;20077;-75
2023/03/15 09:11:51;;;;;;;14.02;3.78;;;;;;;;;;5012191;28;20022;-75
2023/03/15 09:14:17;;;;;;;12.00;3.45;;;;;;;;;;5012533;28;20053;-75
2023/03/15 09:16:43;;;;;;;10.15;2.90;;;;;;;;;;4994386;28;20030;-75
2023/03/15 09:19:09;;;;;;;8.98;2.20;;;;;;;;;;5011756;28;20030;-75
2023/03/15 09:21:35;;;;;;;6.60;1.80;;;;;;;;;;5012147;28;20105;-76
2023/03/15 09:24:01;;;;;;;10.65;2.22;;;;;;;;;;4994693;28;20036;-76
2023/03/15 09:26:27;;;;;;;10.70;2.72;;;;;;;;;;5011277;28;20497;-75
2023/03/15 09:28:53;;;;;;;18.63;2.72;;;;;;;;;;5011940;28;20022;-75
2023/03/15 09:31:19;;;;;;;12.13;2.80;;;;;;;;;;5012280;28;20018;-75
2023/03/15 09:33:45;;;;;;;8.90;2.67;;;;;;;;;;5012112;28;20037;-75
2023/03/15 09:36:11;;;;;;;13.65;2.60;;;;;;;;;;5011971;28;20472;-75
2023/03/15 09:38:37;;;;;;;8.38;2.22;;;;;;;;;;5011929;28;20033;-75
2023/03/15 09:41:04;;;;;;;10.18;2.38;;;;;;;;;;4994316;28;20030;-75
2023/03/15 09:43:30;;;;;;;14.98;3.35;;;;;;;;;;4994300;28;20117;-74
2023/03/15 09:46:08;;;;;;;12.20;3.70;;;;;;;;;;5011898;28;20054;-73
2023/03/15 09:48:34;;;;;;;12.35;3.00;;;;;;;;;;5011680;28;20062;-74
2023/03/15 09:51:13;;;;;;;10.35;2.70;;;;;;;;;;5011786;28;20025;-74
2023/03/15 09:53:39;;;;;;;17.85;2.58;;;;;;;;;;5011641;28;20030;-74
2023/03/15 09:56:18;;;;;;;7.90;2.03;;;;;;;;;;5011600;28;20030;-74
2023/03/15 09:58:44;;;;;;;7.70;2.10;;;;;;;;;;5011751;28;20061;-75
2023/03/15 10:01:12;;;;;;;12.45;2.13;;;;;;;;;;5011701;28;20041;-75
2023/03/15 10:03:49;;;;;;;13.85;3.22;;;;;;;;;;5011599;28;20389;-75
2023/03/15 10:06:16;;;;;;;10.65;2.63;;;;;;;;;;4993048;28;20025;-76
2023/03/15 10:08:42;;;;;;;10.30;3.38;;;;;;;;;;5011384;28;20030;-76
2023/03/15 10:11:17;;;;;;;8.57;2.15;;;;;;;;;;5009893;28;20101;-76
2023/03/15 10:13:51;;;;;;;8.85;2.65;;;;;;;;;;5010471;28;20049;-75
2023/03/15 10:16:20;;;;;;;8.88;2.90;;;;;;;;;;5010074;28;20026;-75
2023/03/15 10:18:46;;;;;;;9.32;2.80;;;;;;;;;;5010487;28;20029;-73
2023/03/15 10:21:16;;;;;;;7.60;2.22;;;;;;;;;;5010770;28;20030;-73
2023/03/15 10:23:42;;;;;;;12.88;3.53;;;;;;;;;;5010288;28;20068;-75
2023/03/15 10:26:11;;;;;;;12.05;2.55;;;;;;;;;;4992477;28;20037;-75
2023/03/15 10:28:37;;;;;;;9.52;3.03;;;;;;;;;;5011139;28;20075;-75
2023/03/15 10:31:14;;;;;;;10.52;2.92;;;;;;;;;;4993874;28;20018;-75
2023/03/15 10:33:40;;;;;;;14.75;3.25;;;;;;;;;;5011485;28;20026;-75
2023/03/15 10:36:13;;;;;;;8.20;2.78;;;;;;;;;;5011454;28;20033;-74
2023/03/15 10:38:40;;;;;;;9.93;2.78;;;;;;;;;;5014702;28;20029;-75
2023/03/15 10:41:06;;;;;;;9.98;3.03;;;;;;;;;;5015224;28;20091;-75
2023/03/15 10:43:36;;;;;;;10.25;2.97;;;;;;;;;;5015391;28;20026;-75
2023/03/15 10:46:05;;;;;;;8.80;2.58;;;;;;;;;;5014933;28;20048;-75
2023/03/15 10:48:36;;;;;;;13.98;3.33;;;;;;;;;;5015104;28;20097;-75
2023/03/15 10:51:02;;;;;;;;;;;;;;;;;;5014631;28;20503;-75
2023/03/15 10:53:28;;;;;;;10.10;2.70;;;;;;;;;;5014873;28;19959;-75
2023/03/15 10:55:59;;;;;;;10.35;3.38;;;;;;;;;;5014548;28;20022;-76
2023/03/15 10:58:26;;;;;;;9.30;2.20;;;;;;;;;;5014224;28;20035;-75
2023/03/15 11:00:58;;;;;;;7.20;2.15;;;;;;;;;;5014418;28;20049;-75
2023/03/15 11:03:24;;;;;;;9.23;2.60;;;;;;;;;;5014579;28;20034;-75
2023/03/15 11:05:52;;;;;;;7.00;2.15;;;;;;;;;;5014543;28;20033;-73
2023/03/15 11:08:19;;;;;;;7.97;3.20;;;;;;;;;;5014113;28;20025;-76
2023/03/15 11:10:46;;;;;;;6.20;2.15;;;;;;;;;;5014471;28;20472;-75
2023/03/15 11:13:20;;;;;;;10.02;3.17;;;;;;;;;;5014219;28;20030;-75
2023/03/15 11:15:53;;;;;;;8.25;2.95;;;;;;;;;;5013807;28;20029;-73
2023/03/15 11:18:24;;;;;;;10.10;2.55;;;;;;;;;;5012069;28;20029;-71
2023/03/15 11:20:53;;;;;;;7.93;2.53;;;;;;;;;;5013348;28;20022;-71
2023/03/15 11:23:25;;;;;;;10.02;3.33;;;;;;;;;;5016080;28;20026;-72
2023/03/15 11:25:51;;;;;;;10.50;2.85;;;;;;;;;;5023311;28;20029;-75
2023/03/15 11:28:19;;;;;;;10.90;2.67;;;;;;;;;;5020034;28;20018;-75
2023/03/15 11:30:45;;;;;;;8.25;2.40;;;;;;;;;;5027224;28;20108;-75
2023/03/15 11:33:18;;;;;;;5.32;1.88;;;;;;;;;;5033565;28;20025;-74
2023/03/15 11:35:47;;;;;;;9.75;2.22;;;;;;;;;;5033451;28;20036;-73
2023/03/15 11:38:33;;;;;;;6.53;2.33;;;;;;;;;;5020423;28;20441;-73
2023/03/15 11:40:59;;;;;;;9.80;1.90;;;;;;;;;;4996030;28;20030;-73
2023/03/15 11:43:29;;;;;;;16.33;2.88;;;;;;;;;;5013714;28;20057;-72
2023/03/15 11:45:55;;;;;;;8.40;2.63;;;;;;;;;;5013362;28;20018;-73
2023/03/15 11:48:35;;;;;;;8.00;2.20;;;;;;;;;;5012547;28;20021;-74
2023/03/15 11:51:01;;;;;;;4.75;2.40;;;;;;;;;;5020365;28;20022;-74
2023/03/15 11:53:31;;;;;;;6.32;2.30;;;;;;;;;;5002046;28;20049;-74
2023/03/15 11:56:02;;;;;;;7.45;2.25;;;;;;;;;;5018916;28;20030;-73
2023/03/15 11:58:35;;;;;;;9.70;2.33;;;;;;;;;;5012217;28;20075;-73
2023/03/15 12:01:03;;;;;;;6.47;2.13;;;;;;;;;;4994236;28;20392;-73
2023/03/15 12:03:29;;;;;;;5.97;2.20;;;;;;;;;;5013105;28;20417;-74
2023/03/15 12:06:18;;;;;;;8.35;2.22;;;;;;;;;;5013131;28;20113;-72
2023/03/15 12:08:52;;;;;;;4.57;2.00;;;;;;;;;;5002578;28;20034;-73
2023/03/15 12:11:21;;;;;;;10.02;1.95;;;;;;;;;;5013355;28;20046;-75
2023/03/15 12:13:50;;;;;;;7.45;2.15;;;;;;;;;;5013037;28;20030;-73
2023/03/15 12:16:19;;;;;;;5.68;1.92;;;;;;;;;;5013068;28;20033;-73
2023/03/15 12:18:46;;;;;;;5.75;1.70;;;;;;;;;;5012801;28;20033;-73
2023/03/15 12:21:19;;;;;;;10.07;2.72;;;;;;;;;;5013009;28;20084;-73
2023/03/15 12:23:56;;;;;;;8.88;2.20;;;;;;;;;;5012832;28;20026;-74
2023/03/15 12:26:24;;;;;;;4.95;1.67;;;;;;;;;;5011591;28;20042;-74
2023/03/15 12:29:08;;;;;;;4.60;1.80;;;;;;;;;;5011678;28;20050;-73
2023/03/15 12:31:43;;;;;;;7.20;2.63;;;;;;;;;;4993154;28;20022;-72
2023/03/15 12:34:14;;;;;;;7.28;1.60;;;;;;;;;;5011141;28;20030;-72
2023/03/15 12:36:41;;;;;;;9.95;2.13;;;;;;;;;;5010896;28;20030;-73
2023/03/15 12:39:13;;;;;;;8.32;2.58;;;;;;;;;;5010415;28;20034;-74
2023/03/15 12:41:40;;;;;;;5.72;2.20;;;;;;;;;;5010965;28;20033;-73
2023/03/15 12:44:25;;;;;;;6.40;2.55;;;;;;;;;;5011965;28;20049;-74
2023/03/15 12:46:51;;;;;;;7.30;2.22;;;;;;;;;;5012490;28;20029;-73
2023/03/15 12:49:23;;;;;;;10.88;2.83;;;;;;;;;;5012327;28;20022;-72
2023/03/15 12:51:58;;;;;;;9.75;3.20;;;;;;;;;;5012386;28;20125;-75
2023/03/15 12:54:25;;;;;;;9.13;2.92;;;;;;;;;;5012412;28;20030;-72
2023/03/15 12:56:53;;;;;;;4.88;1.92;;;;;;;;;;5012255;28;20152;-73
2023/03/15 12:59:25;;;;;;;5.65;2.05;;;;;;;;;;5011820;28;20404;-73
2023/03/15 13:01:51;;;;;;;6.78;1.90;;;;;;;;;;5011864;28;20030;-72
2023/03/15 13:04:17;;;;;;;9.95;2.90;;;;;;;;;;5011860;28;20026;-73
2023/03/15 13:06:43;;;;;;;5.00;1.75;;;;;;;;;;5012212;28;20131;-74
2023/03/15 13:09:15;;;;;;;7.45;2.72;;;;;;;;;;5012180;28;20195;-74
2023/03/15 13:11:49;;;;;;;11.35;2.72;;;;;;;;;;5012153;28;20499;-74
2023/03/15 13:14:20;;;;;;;10.70;2.53;;;;;;;;;;5012256;28;20026;-70
2023/03/15 13:16:46;;;;;;;7.18;2.67;;;;;;;;;;5011704;28;20034;-73
2023/03/15 13:19:15;;;;;;;10.80;2.50;;;;;;;;;;4994196;28;20036;-73
2023/03/15 13:22:00;;;;;;;5.47;1.95;;;;;;;;;;5011913;28;20017;-70
2023/03/15 13:24:38;;;;;;;10.02;2.50;;;;;;;;;;5011689;28;20022;-73
2023/03/15 13:27:13;;;;;;;5.65;2.03;;;;;;;;;;4993787;28;20061;-73
2023/03/15 13:29:39;;;;;;;5.50;1.92;;;;;;;;;;5011964;28;20026;-73
2023/03/15 13:32:12;;;;;;;8.07;2.17;;;;;;;;;;5011983;28;20105;-73
2023/03/15 13:34:38;;;;;;;8.23;2.35;;;;;;;;;;5011777;28;20026;-74
2023/03/15 13:37:10;;;;;;;3.42;1.83;;;;;;;;;;5011381;28;20492;-72
2023/03/15 13:39:51;;;;;;;6.95;2.10;;;;;;;;;;5011628;28;20527;-73
2023/03/15 13:42:19;;;;;;;4.05;2.03;;;;;;;;;;5011926;28;20033;-71
2023/03/15 13:44:45;;;;;;;9.07;2.97;;;;;;;;;;5011577;28;20443;-73
2023/03/15 13:47:29;;;;;;;7.47;2.15;;;;;;;;;;5011237;28;20030;-72
2023/03/15 13:49:55;;;;;;;4.47;2.03;;;;;;;;;;5011528;28;20045;-73
2023/03/15 13:52:22;;;;;;;6.38;1.80;;;;;;;;;;5011662;28;20022;-73
2023/03/15 13:54:48;;;;;;;6.32;2.85;;;;;;;;;;5011499;28;20381;-73
2023/03/15 13:57:21;;;;;;;6.20;2.30;;;;;;;;;;5011303;28;20113;-72
2023/03/15 13:59:51;;;;;;;8.80;2.75;;;;;;;;;;5011457;28;20544;-73
2023/03/15 14:02:19;;;;;;;7.67;2.63;;;;;;;;;;5011588;28;20113;-72
2023/03/15 14:04:49;;;;;;;5.78;2.10;;;;;;;;;;5011262;28;20054;-73
2023/03/15 14:07:15;;;;;;;5.95;1.80;;;;;;;;;;5011078;28;20072;-74
2023/03/15 14:09:41;;;;;;;5.07;1.95;;;;;;;;;;5011180;28;20022;-73
2023/03/15 14:12:16;;;;;;;5.43;1.40;;;;;;;;;;5013203;28;20419;-74
2023/03/15 14:14:48;;;;;;;7.47;1.73;;;;;;;;;;5015129;28;20026;-73
2023/03/15 14:17:33;;;;;;;7.60;2.00;;;;;;;;;;5015318;28;20037;-74
2023/03/15 14:20:07;;;;;;;11.20;2.45;;;;;;;;;;5015223;28;20021;-72
2023/03/15 14:22:34;;;;;;;4.32;1.50;;;;;;;;;;4997246;28;20025;-73
2023/03/15 14:25:00;;;;;;;5.00;1.77;;;;;;;;;;4997124;28;20054;-73
2023/03/15 14:27:29;;;;;;;4.43;1.85;;;;;;;;;;5014355;28;20040;-73
2023/03/15 14:29:59;;;;;;;5.97;2.20;;;;;;;;;;5014931;28;20044;-74
2023/03/15 14:32:28;;;;;;;2.67;1.35;;;;;;;;;;5014951;28;20408;-74
2023/03/15 14:35:01;;;;;;;5.57;1.75;;;;;;;;;;5014738;28;20062;-73
2023/03/15 14:37:29;;;;;;;5.30;1.92;;;;;;;;;;5014500;28;20060;-73
2023/03/15 14:40:14;;;;;;;5.22;1.58;;;;;;;;;;5014480;28;20030;-73